BAW464 GCLP-EGLL
Flight info
| Callsign | BAW464 |
|---|---|
| Flight time | 3h 20m |
| Altitude | 36000 |
| Route | VASTO DCT NIDEB DCT TIGGI DCT PINEK/N0488F380 DCT KORUL DCT FEJAC DCT JSY/N0478F340 DCT REVTU UP87 ROXOG |
| Aircraft | B77W/H-SDE1E2E3FGHIJ2J3J4J5M1RWXY/LB1D1 |
Departure
| Time | 2026-05-04 21:14 |
|---|---|
| Airport | Gran Canaria Airport (GCLP) |
Arrival
| Time | 2026-05-05 00:35 |
|---|---|
| Airport | London Heathrow Airport (EGLL) |
| Time | Latitude | Longitude | Altitude | Speed | Heading |
|---|---|---|---|---|---|
| 2026-05-04 20:41 | 27.93516 | -15.38962 | 93 ft | 0 kts | 291° |
| 2026-05-04 21:02 | 27.93514 | -15.38957 | 89 ft | 3 kts | 291° |
| 2026-05-04 21:02 | 27.93505 | -15.38931 | 93 ft | 3 kts | 291° |
| 2026-05-04 21:03 | 27.93494 | -15.38907 | 92 ft | 4 kts | 313° |
| 2026-05-04 21:03 | 27.93476 | -15.38892 | 90 ft | 4 kts | 345° |
| 2026-05-04 21:03 | 27.93452 | -15.38889 | 90 ft | 4 kts | 9° |
| 2026-05-04 21:03 | 27.93427 | -15.38897 | 91 ft | 4 kts | 21° |
| 2026-05-04 21:04 | 27.93402 | -15.38909 | 90 ft | 4 kts | 27° |
| 2026-05-04 21:04 | 27.93378 | -15.38923 | 91 ft | 4 kts | 29° |
| 2026-05-04 21:04 | 27.93355 | -15.38938 | 91 ft | 4 kts | 25° |
| 2026-05-04 21:04 | 27.93343 | -15.38944 | 89 ft | 0 kts | 21° |
| 2026-05-04 21:06 | 27.93347 | -15.38942 | 90 ft | 6 kts | 21° |
| 2026-05-04 21:06 | 27.93389 | -15.38924 | 91 ft | 14 kts | 21° |
| 2026-05-04 21:07 | 27.93467 | -15.38884 | 90 ft | 8 kts | 44° |
| 2026-05-04 21:07 | 27.93457 | -15.38825 | 90 ft | 10 kts | 123° |
| 2026-05-04 21:07 | 27.93401 | -15.38767 | 84 ft | 13 kts | 172° |
| 2026-05-04 21:07 | 27.93310 | -15.38797 | 83 ft | 15 kts | 202° |
| 2026-05-04 21:08 | 27.93214 | -15.38840 | 84 ft | 15 kts | 203° |
| 2026-05-04 21:08 | 27.93118 | -15.38889 | 83 ft | 15 kts | 204° |
| 2026-05-04 21:08 | 27.93019 | -15.38932 | 87 ft | 15 kts | 201° |
| 2026-05-04 21:08 | 27.92921 | -15.38975 | 88 ft | 15 kts | 201° |
| 2026-05-04 21:09 | 27.92823 | -15.39021 | 92 ft | 15 kts | 203° |
| 2026-05-04 21:09 | 27.92726 | -15.39069 | 93 ft | 15 kts | 199° |
| 2026-05-04 21:09 | 27.92625 | -15.39106 | 97 ft | 15 kts | 201° |
| 2026-05-04 21:09 | 27.92527 | -15.39150 | 100 ft | 15 kts | 202° |
| 2026-05-04 21:10 | 27.92430 | -15.39197 | 103 ft | 15 kts | 204° |
| 2026-05-04 21:10 | 27.92331 | -15.39238 | 106 ft | 15 kts | 197° |
| 2026-05-04 21:10 | 27.92232 | -15.39280 | 106 ft | 15 kts | 202° |
| 2026-05-04 21:10 | 27.92125 | -15.39319 | 104 ft | 17 kts | 211° |
| 2026-05-04 21:11 | 27.92017 | -15.39375 | 100 ft | 18 kts | 202° |
| 2026-05-04 21:11 | 27.91908 | -15.39355 | 99 ft | 18 kts | 124° |
| 2026-05-04 21:11 | 27.91899 | -15.39272 | 93 ft | 25 kts | 93° |
| 2026-05-04 21:11 | 27.91849 | -15.39102 | 87 ft | 9 kts | 111° |
| 2026-05-04 21:12 | 27.91851 | -15.39027 | 85 ft | 11 kts | 53° |
| 2026-05-04 21:12 | 27.91918 | -15.38990 | 84 ft | 0 kts | 20° |
| 2026-05-04 21:13 | 27.91929 | -15.38986 | 84 ft | 15 kts | 20° |
| 2026-05-04 21:14 | 27.92153 | -15.38888 | 65 ft | 68 kts | 23° |
| 2026-05-04 21:14 | 27.92854 | -15.38578 | 48 ft | 145 kts | 21° |
| 2026-05-04 21:14 | 27.93913 | -15.38060 | 298 ft | 181 kts | 24° |
| 2026-05-04 21:14 | 27.95070 | -15.37516 | 1082 ft | 179 kts | 20° |
| 2026-05-04 21:15 | 27.96256 | -15.37035 | 1772 ft | 189 kts | 18° |
| 2026-05-04 21:15 | 27.97584 | -15.36527 | 2119 ft | 216 kts | 19° |
| 2026-05-04 21:15 | 27.99059 | -15.35949 | 2732 ft | 228 kts | 19° |
| 2026-05-04 21:15 | 28.00556 | -15.35354 | 3547 ft | 232 kts | 19° |
| 2026-05-04 21:16 | 28.02136 | -15.34720 | 3948 ft | 251 kts | 19° |
| 2026-05-04 21:16 | 28.03767 | -15.34061 | 3993 ft | 252 kts | 19° |
| 2026-05-04 21:16 | 28.05396 | -15.33371 | 4261 ft | 262 kts | 20° |
| 2026-05-04 21:16 | 28.07166 | -15.32599 | 5831 ft | 275 kts | 20° |
| 2026-05-04 21:17 | 28.08973 | -15.31811 | 7768 ft | 281 kts | 19° |
| 2026-05-04 21:17 | 28.10836 | -15.31001 | 9432 ft | 297 kts | 19° |
| 2026-05-04 21:17 | 28.12831 | -15.30136 | 10770 ft | 316 kts | 18° |
| 2026-05-04 21:17 | 28.15039 | -15.29225 | 11111 ft | 372 kts | 14° |
| 2026-05-04 21:18 | 28.17736 | -15.28413 | 11409 ft | 415 kts | 11° |
| 2026-05-04 21:18 | 28.20534 | -15.27668 | 12813 ft | 411 kts | 9° |
| 2026-05-04 21:18 | 28.23344 | -15.26910 | 13729 ft | 420 kts | 9° |
| 2026-05-04 21:18 | 28.26208 | -15.26109 | 14511 ft | 428 kts | 10° |
| 2026-05-04 21:19 | 28.29105 | -15.25277 | 15447 ft | 431 kts | 11° |
| 2026-05-04 21:19 | 28.31973 | -15.24192 | 16392 ft | 440 kts | 18° |
| 2026-05-04 21:19 | 28.34778 | -15.22728 | 17269 ft | 448 kts | 24° |
| 2026-05-04 21:19 | 28.37489 | -15.20897 | 18102 ft | 457 kts | 29° |
| 2026-05-04 21:20 | 28.40171 | -15.18893 | 18861 ft | 465 kts | 30° |
| 2026-05-04 21:20 | 28.42870 | -15.16835 | 19610 ft | 470 kts | 30° |
| 2026-05-04 21:20 | 28.45597 | -15.14749 | 20395 ft | 475 kts | 30° |
| 2026-05-04 21:20 | 28.48357 | -15.12650 | 21146 ft | 480 kts | 29° |
| 2026-05-04 21:21 | 28.51154 | -15.10537 | 21863 ft | 486 kts | 28° |
| 2026-05-04 21:21 | 28.53990 | -15.08405 | 22568 ft | 491 kts | 28° |
| 2026-05-04 21:21 | 28.56859 | -15.06254 | 23265 ft | 497 kts | 28° |
| 2026-05-04 21:21 | 28.59760 | -15.04080 | 23898 ft | 502 kts | 28° |
| 2026-05-04 21:22 | 28.62690 | -15.01883 | 24471 ft | 507 kts | 28° |
| 2026-05-04 21:22 | 28.65647 | -14.99663 | 25061 ft | 511 kts | 28° |
| 2026-05-04 21:22 | 28.68625 | -14.97424 | 25648 ft | 515 kts | 28° |
| 2026-05-04 21:22 | 28.71630 | -14.95162 | 26210 ft | 519 kts | 28° |
| 2026-05-04 21:23 | 28.74655 | -14.92885 | 26760 ft | 524 kts | 28° |
| 2026-05-04 21:23 | 28.77705 | -14.90586 | 27289 ft | 528 kts | 28° |
| 2026-05-04 21:23 | 28.80779 | -14.88267 | 27817 ft | 532 kts | 28° |
| 2026-05-04 21:23 | 28.83872 | -14.85932 | 28329 ft | 535 kts | 28° |
| 2026-05-04 21:24 | 28.86989 | -14.83579 | 28818 ft | 539 kts | 28° |
| 2026-05-04 21:24 | 28.90126 | -14.81210 | 29282 ft | 542 kts | 28° |
| 2026-05-04 21:24 | 28.93281 | -14.78827 | 29728 ft | 546 kts | 28° |
| 2026-05-04 21:24 | 28.96452 | -14.76430 | 30217 ft | 547 kts | 28° |
| 2026-05-04 21:25 | 28.99617 | -14.74033 | 30729 ft | 546 kts | 28° |
| 2026-05-04 21:25 | 29.02776 | -14.71638 | 31225 ft | 545 kts | 28° |
| 2026-05-04 21:25 | 29.05893 | -14.69273 | 31678 ft | 545 kts | 28° |
| 2026-05-04 21:25 | 29.09052 | -14.66875 | 32115 ft | 546 kts | 28° |
| 2026-05-04 21:26 | 29.12214 | -14.64474 | 32551 ft | 546 kts | 28° |
| 2026-05-04 21:26 | 29.15378 | -14.62070 | 33005 ft | 546 kts | 28° |
| 2026-05-04 21:26 | 29.18540 | -14.59664 | 33454 ft | 546 kts | 28° |
| 2026-05-04 21:26 | 29.21699 | -14.57260 | 33909 ft | 546 kts | 28° |
| 2026-05-04 21:27 | 29.24859 | -14.54853 | 34301 ft | 546 kts | 28° |
| 2026-05-04 21:27 | 29.28018 | -14.52444 | 34680 ft | 546 kts | 28° |
| 2026-05-04 21:27 | 29.31179 | -14.50033 | 35039 ft | 545 kts | 28° |
| 2026-05-04 21:27 | 29.34334 | -14.47624 | 35404 ft | 545 kts | 28° |
| 2026-05-04 21:28 | 29.37488 | -14.45214 | 35761 ft | 545 kts | 28° |
| 2026-05-04 21:28 | 29.40643 | -14.42802 | 36134 ft | 545 kts | 28° |
| 2026-05-04 21:28 | 29.43791 | -14.40393 | 36487 ft | 544 kts | 28° |
| 2026-05-04 21:28 | 29.46945 | -14.37978 | 36812 ft | 545 kts | 28° |
| 2026-05-04 21:29 | 29.50093 | -14.35566 | 37156 ft | 545 kts | 28° |
| 2026-05-04 21:29 | 29.53245 | -14.33148 | 37472 ft | 545 kts | 28° |
| 2026-05-04 21:29 | 29.56396 | -14.30730 | 37777 ft | 545 kts | 28° |
| 2026-05-04 21:29 | 29.59550 | -14.28307 | 38053 ft | 546 kts | 28° |
| 2026-05-04 21:30 | 29.65911 | -14.23417 | 38127 ft | 551 kts | 28° |
| 2026-05-04 21:30 | 29.72246 | -14.18532 | 38108 ft | 545 kts | 28° |
| 2026-05-04 21:31 | 29.81640 | -14.11285 | 38127 ft | 541 kts | 28° |
| 2026-05-04 21:32 | 29.86826 | -14.07277 | 38130 ft | 540 kts | 28° |
| 2026-05-04 21:32 | 29.93068 | -14.02445 | 38134 ft | 540 kts | 28° |
| 2026-05-04 21:33 | 29.99312 | -13.97602 | 38137 ft | 541 kts | 28° |
| 2026-05-04 21:33 | 30.05562 | -13.92748 | 38135 ft | 542 kts | 28° |
| 2026-05-04 21:34 | 30.11820 | -13.87880 | 38138 ft | 543 kts | 28° |
| 2026-05-04 21:34 | 30.18082 | -13.83001 | 38136 ft | 543 kts | 29° |
| 2026-05-04 21:35 | 30.24349 | -13.78110 | 38132 ft | 543 kts | 29° |
| 2026-05-04 21:35 | 30.30609 | -13.73216 | 38122 ft | 543 kts | 29° |
| 2026-05-04 21:36 | 30.36866 | -13.68318 | 38135 ft | 543 kts | 29° |
| 2026-05-04 21:36 | 30.43073 | -13.63450 | 38130 ft | 542 kts | 29° |
| 2026-05-04 21:37 | 30.49317 | -13.58547 | 38128 ft | 541 kts | 28° |
| 2026-05-04 21:37 | 30.55742 | -13.54119 | 38136 ft | 535 kts | 22° |
| 2026-05-04 21:38 | 30.62306 | -13.50070 | 38137 ft | 534 kts | 21° |
| 2026-05-04 21:38 | 30.68866 | -13.46035 | 38132 ft | 534 kts | 22° |
| 2026-05-04 21:39 | 30.75407 | -13.41952 | 38127 ft | 533 kts | 22° |
| 2026-05-04 21:39 | 30.81932 | -13.37843 | 38133 ft | 533 kts | 22° |
| 2026-05-04 21:40 | 30.88448 | -13.33730 | 38129 ft | 533 kts | 22° |
| 2026-05-04 21:40 | 30.94962 | -13.29615 | 38137 ft | 532 kts | 22° |
| 2026-05-04 21:41 | 31.01470 | -13.25500 | 38137 ft | 532 kts | 22° |
| 2026-05-04 21:41 | 31.07976 | -13.21381 | 38128 ft | 532 kts | 22° |
| 2026-05-04 21:42 | 31.14474 | -13.17260 | 38132 ft | 531 kts | 22° |
| 2026-05-04 21:42 | 31.20962 | -13.13139 | 38138 ft | 531 kts | 22° |
| 2026-05-04 21:43 | 31.27443 | -13.09016 | 38132 ft | 530 kts | 22° |
| 2026-05-04 21:43 | 31.33923 | -13.04886 | 38134 ft | 530 kts | 22° |
| 2026-05-04 21:44 | 31.40393 | -13.00758 | 38137 ft | 530 kts | 22° |
| 2026-05-04 21:44 | 31.46859 | -12.96624 | 38135 ft | 529 kts | 22° |
| 2026-05-04 21:45 | 31.53325 | -12.92484 | 38138 ft | 529 kts | 22° |
| 2026-05-04 21:45 | 31.59744 | -12.88368 | 38140 ft | 529 kts | 22° |
| 2026-05-04 21:46 | 31.66243 | -12.84194 | 38138 ft | 529 kts | 23° |
| 2026-05-04 21:46 | 31.72697 | -12.80041 | 38137 ft | 529 kts | 23° |
| 2026-05-04 21:47 | 31.79101 | -12.75915 | 38128 ft | 528 kts | 23° |
| 2026-05-04 21:47 | 31.85538 | -12.71761 | 38146 ft | 528 kts | 23° |
| 2026-05-04 21:48 | 31.91971 | -12.67602 | 38154 ft | 527 kts | 23° |
| 2026-05-04 21:48 | 31.98392 | -12.63444 | 38137 ft | 526 kts | 23° |
| 2026-05-04 21:49 | 32.04799 | -12.59290 | 38150 ft | 525 kts | 23° |
| 2026-05-04 21:49 | 32.11196 | -12.55134 | 38143 ft | 524 kts | 23° |
| 2026-05-04 21:50 | 32.17578 | -12.50981 | 38143 ft | 523 kts | 23° |
| 2026-05-04 21:50 | 32.23943 | -12.46834 | 38150 ft | 522 kts | 23° |
| 2026-05-04 21:51 | 32.30288 | -12.42692 | 38153 ft | 521 kts | 23° |
| 2026-05-04 21:51 | 32.36621 | -12.38552 | 38152 ft | 519 kts | 23° |
| 2026-05-04 21:52 | 32.42936 | -12.34417 | 38152 ft | 518 kts | 23° |
| 2026-05-04 21:52 | 32.49239 | -12.30283 | 38150 ft | 517 kts | 23° |
| 2026-05-04 21:53 | 32.55523 | -12.26155 | 38152 ft | 516 kts | 23° |
| 2026-05-04 21:53 | 32.61799 | -12.22026 | 38159 ft | 515 kts | 23° |
| 2026-05-04 21:54 | 32.68060 | -12.17899 | 38153 ft | 515 kts | 23° |
| 2026-05-04 21:54 | 32.74316 | -12.13769 | 38159 ft | 514 kts | 23° |
| 2026-05-04 21:55 | 32.80561 | -12.09640 | 38158 ft | 513 kts | 23° |
| 2026-05-04 21:55 | 32.86799 | -12.05507 | 38156 ft | 513 kts | 24° |
| 2026-05-04 21:56 | 32.93032 | -12.01377 | 38161 ft | 512 kts | 22° |
| 2026-05-04 21:56 | 32.99444 | -11.98022 | 38157 ft | 502 kts | 11° |
| 2026-05-04 21:57 | 33.06120 | -11.95746 | 38168 ft | 498 kts | 8° |
| 2026-05-04 21:57 | 33.12803 | -11.93559 | 38165 ft | 498 kts | 9° |
| 2026-05-04 21:58 | 33.19483 | -11.91329 | 38171 ft | 499 kts | 9° |
| 2026-05-04 21:58 | 33.26154 | -11.89062 | 38152 ft | 499 kts | 9° |
| 2026-05-04 21:59 | 33.32822 | -11.86781 | 38162 ft | 498 kts | 9° |
| 2026-05-04 21:59 | 33.39484 | -11.84499 | 38166 ft | 498 kts | 9° |
| 2026-05-04 22:00 | 33.46147 | -11.82216 | 38172 ft | 498 kts | 9° |
| 2026-05-04 22:00 | 33.52806 | -11.79932 | 38165 ft | 498 kts | 9° |
| 2026-05-04 22:01 | 33.59461 | -11.77645 | 38170 ft | 497 kts | 9° |
| 2026-05-04 22:01 | 33.66111 | -11.75356 | 38175 ft | 497 kts | 9° |
| 2026-05-04 22:02 | 33.72764 | -11.73063 | 38181 ft | 498 kts | 9° |
| 2026-05-04 22:02 | 33.79421 | -11.70765 | 38177 ft | 498 kts | 9° |
| 2026-05-04 22:03 | 33.86075 | -11.68464 | 38171 ft | 498 kts | 10° |
| 2026-05-04 22:03 | 33.92730 | -11.66158 | 38167 ft | 498 kts | 10° |
| 2026-05-04 22:04 | 33.99384 | -11.63849 | 38175 ft | 497 kts | 10° |
| 2026-05-04 22:04 | 34.06032 | -11.61539 | 38181 ft | 497 kts | 10° |
| 2026-05-04 22:05 | 34.12682 | -11.59224 | 38177 ft | 497 kts | 10° |
| 2026-05-04 22:05 | 34.19332 | -11.56906 | 38177 ft | 497 kts | 10° |
| 2026-05-04 22:06 | 34.25983 | -11.54583 | 38176 ft | 498 kts | 10° |
| 2026-05-04 22:06 | 34.32634 | -11.52256 | 38179 ft | 498 kts | 10° |
| 2026-05-04 22:07 | 34.39288 | -11.49925 | 38179 ft | 498 kts | 10° |
| 2026-05-04 22:07 | 34.45941 | -11.47590 | 38178 ft | 498 kts | 10° |
| 2026-05-04 22:08 | 34.52596 | -11.45250 | 38176 ft | 498 kts | 10° |
| 2026-05-04 22:08 | 34.59252 | -11.42906 | 38179 ft | 498 kts | 10° |
| 2026-05-04 22:09 | 34.65911 | -11.40557 | 38176 ft | 498 kts | 10° |
| 2026-05-04 22:09 | 34.72530 | -11.38218 | 38182 ft | 499 kts | 10° |
| 2026-05-04 22:10 | 34.79189 | -11.35861 | 38184 ft | 499 kts | 10° |
| 2026-05-04 22:10 | 34.85851 | -11.33499 | 38182 ft | 499 kts | 10° |
| 2026-05-04 22:11 | 34.92512 | -11.31134 | 38182 ft | 499 kts | 10° |
| 2026-05-04 22:11 | 34.99175 | -11.28764 | 38183 ft | 498 kts | 10° |
| 2026-05-04 22:12 | 35.05833 | -11.26391 | 38184 ft | 498 kts | 10° |
| 2026-05-04 22:12 | 35.12483 | -11.24018 | 38185 ft | 498 kts | 10° |
| 2026-05-04 22:13 | 35.19131 | -11.21641 | 38185 ft | 498 kts | 10° |
| 2026-05-04 22:13 | 35.25777 | -11.19261 | 38184 ft | 497 kts | 10° |
| 2026-05-04 22:14 | 35.32421 | -11.16877 | 38194 ft | 497 kts | 10° |
| 2026-05-04 22:14 | 35.39064 | -11.14490 | 38198 ft | 498 kts | 10° |
| 2026-05-04 22:15 | 35.45711 | -11.12098 | 38193 ft | 498 kts | 10° |
| 2026-05-04 22:15 | 35.52370 | -11.09697 | 38189 ft | 499 kts | 9° |
| 2026-05-04 22:16 | 35.59034 | -11.07289 | 38190 ft | 500 kts | 9° |
| 2026-05-04 22:16 | 35.65709 | -11.04873 | 38191 ft | 500 kts | 9° |
| 2026-05-04 22:17 | 35.72391 | -11.02451 | 38192 ft | 501 kts | 9° |
| 2026-05-04 22:17 | 35.79082 | -11.00021 | 38190 ft | 502 kts | 9° |
| 2026-05-04 22:18 | 35.84645 | -10.97997 | 38188 ft | 502 kts | 9° |
| 2026-05-04 22:18 | 35.91345 | -10.95555 | 38188 ft | 502 kts | 9° |
| 2026-05-04 22:19 | 35.99140 | -10.92711 | 38190 ft | 503 kts | 9° |
| 2026-05-04 22:19 | 36.04763 | -10.90657 | 38190 ft | 503 kts | 9° |
| 2026-05-04 22:20 | 36.11477 | -10.88201 | 38197 ft | 504 kts | 9° |
| 2026-05-04 22:20 | 36.18198 | -10.85737 | 38190 ft | 504 kts | 9° |
| 2026-05-04 22:21 | 36.24923 | -10.83266 | 38178 ft | 504 kts | 9° |
| 2026-05-04 22:21 | 36.31650 | -10.80790 | 38180 ft | 504 kts | 9° |
| 2026-05-04 22:22 | 36.38378 | -10.78309 | 38187 ft | 504 kts | 9° |
| 2026-05-04 22:22 | 36.45061 | -10.75841 | 38190 ft | 504 kts | 9° |
| 2026-05-04 22:23 | 36.51784 | -10.73353 | 38191 ft | 504 kts | 9° |
| 2026-05-04 22:23 | 36.58510 | -10.70860 | 38189 ft | 504 kts | 9° |
| 2026-05-04 22:24 | 36.65234 | -10.68362 | 38189 ft | 504 kts | 9° |
| 2026-05-04 22:24 | 36.71950 | -10.65864 | 38181 ft | 504 kts | 9° |
| 2026-05-04 22:25 | 36.78663 | -10.63362 | 38183 ft | 503 kts | 9° |
| 2026-05-04 22:25 | 36.85369 | -10.60857 | 38180 ft | 503 kts | 9° |
| 2026-05-04 22:26 | 36.92072 | -10.58350 | 38183 ft | 503 kts | 9° |
| 2026-05-04 22:26 | 36.98773 | -10.55839 | 38184 ft | 503 kts | 9° |
| 2026-05-04 22:27 | 37.05469 | -10.53325 | 38180 ft | 503 kts | 9° |
| 2026-05-04 22:27 | 37.12169 | -10.50805 | 38186 ft | 503 kts | 9° |
| 2026-05-04 22:28 | 37.18868 | -10.48281 | 38182 ft | 503 kts | 9° |
| 2026-05-04 22:28 | 37.25571 | -10.45750 | 38178 ft | 503 kts | 9° |
| 2026-05-04 22:29 | 37.32275 | -10.43214 | 38185 ft | 503 kts | 9° |
| 2026-05-04 22:29 | 37.38931 | -10.40691 | 38186 ft | 503 kts | 9° |
| 2026-05-04 22:30 | 37.45636 | -10.38146 | 38172 ft | 503 kts | 9° |
| 2026-05-04 22:30 | 37.52337 | -10.35596 | 38178 ft | 503 kts | 9° |
| 2026-05-04 22:31 | 37.59035 | -10.33044 | 38174 ft | 503 kts | 9° |
| 2026-05-04 22:31 | 37.65739 | -10.30485 | 38174 ft | 503 kts | 9° |
| 2026-05-04 22:32 | 37.72440 | -10.27921 | 38172 ft | 503 kts | 9° |
| 2026-05-04 22:32 | 37.79147 | -10.25351 | 38175 ft | 503 kts | 9° |
| 2026-05-04 22:33 | 37.85850 | -10.22777 | 38170 ft | 503 kts | 9° |
| 2026-05-04 22:33 | 37.92550 | -10.20199 | 38174 ft | 503 kts | 9° |
| 2026-05-04 22:34 | 37.99247 | -10.17618 | 38176 ft | 503 kts | 9° |
| 2026-05-04 22:34 | 38.05945 | -10.15031 | 38171 ft | 503 kts | 10° |
| 2026-05-04 22:35 | 38.12644 | -10.12439 | 38174 ft | 503 kts | 10° |
| 2026-05-04 22:35 | 38.19336 | -10.09844 | 38172 ft | 503 kts | 10° |
| 2026-05-04 22:36 | 38.26028 | -10.07245 | 38166 ft | 503 kts | 10° |
| 2026-05-04 22:36 | 38.32720 | -10.04641 | 38171 ft | 503 kts | 10° |
| 2026-05-04 22:37 | 38.39366 | -10.02050 | 38175 ft | 503 kts | 10° |
| 2026-05-04 22:37 | 38.46057 | -9.99436 | 38179 ft | 503 kts | 11° |
| 2026-05-04 22:38 | 38.52748 | -9.96817 | 38180 ft | 503 kts | 11° |
| 2026-05-04 22:38 | 38.59438 | -9.94193 | 38173 ft | 503 kts | 11° |
| 2026-05-04 22:39 | 38.66133 | -9.91562 | 38171 ft | 503 kts | 11° |
| 2026-05-04 22:39 | 38.72823 | -9.88928 | 38167 ft | 503 kts | 11° |
| 2026-05-04 22:40 | 38.79513 | -9.86289 | 38173 ft | 503 kts | 11° |
| 2026-05-04 22:40 | 38.86207 | -9.83643 | 38174 ft | 503 kts | 11° |
| 2026-05-04 22:41 | 38.92897 | -9.80993 | 38173 ft | 503 kts | 11° |
| 2026-05-04 22:41 | 38.99592 | -9.78336 | 38173 ft | 503 kts | 11° |
| 2026-05-04 22:42 | 39.06284 | -9.75675 | 38168 ft | 503 kts | 11° |
| 2026-05-04 22:42 | 39.12976 | -9.73009 | 38162 ft | 503 kts | 11° |
| 2026-05-04 22:43 | 39.19664 | -9.70339 | 38165 ft | 504 kts | 11° |
| 2026-05-04 22:43 | 39.26358 | -9.67661 | 38160 ft | 504 kts | 11° |
| 2026-05-04 22:44 | 39.33053 | -9.64978 | 38167 ft | 504 kts | 11° |
| 2026-05-04 22:44 | 39.39748 | -9.62289 | 38173 ft | 504 kts | 11° |
| 2026-05-04 22:45 | 39.46445 | -9.59594 | 38160 ft | 504 kts | 12° |
| 2026-05-04 22:45 | 39.56488 | -9.55542 | 38160 ft | 504 kts | 12° |
| 2026-05-04 22:46 | 39.63186 | -9.52833 | 38160 ft | 504 kts | 12° |
| 2026-05-04 22:46 | 39.69883 | -9.50118 | 38159 ft | 504 kts | 12° |
| 2026-05-04 22:47 | 39.76535 | -9.47417 | 38158 ft | 504 kts | 12° |
| 2026-05-04 22:47 | 39.83234 | -9.44691 | 38155 ft | 504 kts | 12° |
| 2026-05-04 22:48 | 39.89933 | -9.41959 | 38150 ft | 504 kts | 12° |
| 2026-05-04 22:48 | 39.96633 | -9.39221 | 38152 ft | 504 kts | 12° |
| 2026-05-04 22:49 | 40.03330 | -9.36479 | 38155 ft | 504 kts | 12° |
| 2026-05-04 22:49 | 40.10025 | -9.33732 | 38161 ft | 504 kts | 13° |
| 2026-05-04 22:50 | 40.16724 | -9.30978 | 38155 ft | 505 kts | 13° |
| 2026-05-04 22:50 | 40.23420 | -9.28219 | 38142 ft | 504 kts | 13° |
| 2026-05-04 22:51 | 40.30114 | -9.25456 | 38147 ft | 504 kts | 13° |
| 2026-05-04 22:51 | 40.36806 | -9.22687 | 38147 ft | 504 kts | 13° |
| 2026-05-04 22:52 | 40.43502 | -9.19911 | 38144 ft | 505 kts | 13° |
| 2026-05-04 22:52 | 40.50196 | -9.17130 | 38143 ft | 505 kts | 13° |
| 2026-05-04 22:53 | 40.56894 | -9.14342 | 38142 ft | 505 kts | 13° |
| 2026-05-04 22:53 | 40.63597 | -9.11546 | 38140 ft | 505 kts | 13° |
| 2026-05-04 22:54 | 40.70297 | -9.08745 | 38140 ft | 506 kts | 13° |
| 2026-05-04 22:54 | 40.77005 | -9.05934 | 38142 ft | 506 kts | 14° |
| 2026-05-04 22:55 | 40.83712 | -9.03118 | 38138 ft | 506 kts | 14° |
| 2026-05-04 22:55 | 40.87063 | -9.01708 | 38136 ft | 506 kts | 14° |
| 2026-05-04 22:56 | 40.93740 | -8.98896 | 38136 ft | 506 kts | 14° |
| 2026-05-04 22:56 | 41.00445 | -8.96066 | 38130 ft | 506 kts | 14° |
| 2026-05-04 22:57 | 41.07154 | -8.93228 | 38123 ft | 506 kts | 14° |
| 2026-05-04 22:57 | 41.13858 | -8.90386 | 38115 ft | 506 kts | 14° |
| 2026-05-04 22:58 | 41.20561 | -8.87539 | 38112 ft | 506 kts | 14° |
| 2026-05-04 22:58 | 41.27266 | -8.84684 | 38107 ft | 506 kts | 14° |
| 2026-05-04 22:59 | 41.33965 | -8.81826 | 38110 ft | 506 kts | 14° |
| 2026-05-04 22:59 | 41.40666 | -8.78961 | 38109 ft | 506 kts | 14° |
| 2026-05-04 23:00 | 41.47362 | -8.76091 | 38118 ft | 506 kts | 14° |
| 2026-05-04 23:00 | 41.54057 | -8.73216 | 38112 ft | 506 kts | 14° |
| 2026-05-04 23:01 | 41.60755 | -8.70333 | 38128 ft | 505 kts | 14° |
| 2026-05-04 23:01 | 41.67448 | -8.67446 | 38124 ft | 505 kts | 14° |
| 2026-05-04 23:02 | 41.74141 | -8.64553 | 38114 ft | 505 kts | 14° |
| 2026-05-04 23:02 | 41.80825 | -8.61657 | 38116 ft | 504 kts | 14° |
| 2026-05-04 23:03 | 41.87468 | -8.58630 | 38115 ft | 505 kts | 18° |
| 2026-05-04 23:03 | 41.94005 | -8.55161 | 38114 ft | 505 kts | 19° |
| 2026-05-04 23:04 | 42.00508 | -8.51605 | 38105 ft | 504 kts | 19° |
| 2026-05-04 23:04 | 42.07006 | -8.48075 | 38118 ft | 504 kts | 19° |
| 2026-05-04 23:05 | 42.12414 | -8.45158 | 38114 ft | 504 kts | 19° |
| 2026-05-04 23:05 | 42.18930 | -8.41650 | 38114 ft | 504 kts | 19° |
| 2026-05-04 23:06 | 42.25444 | -8.38135 | 38109 ft | 504 kts | 19° |
| 2026-05-04 23:06 | 42.31963 | -8.34606 | 38095 ft | 504 kts | 19° |
| 2026-05-04 23:07 | 42.38472 | -8.31074 | 38096 ft | 504 kts | 19° |
| 2026-05-04 23:07 | 42.44979 | -8.27535 | 38122 ft | 503 kts | 19° |
| 2026-05-04 23:08 | 42.51476 | -8.23994 | 38100 ft | 503 kts | 19° |
| 2026-05-04 23:08 | 42.57971 | -8.20446 | 38107 ft | 503 kts | 19° |
| 2026-05-04 23:09 | 42.64460 | -8.16893 | 38107 ft | 503 kts | 19° |
| 2026-05-04 23:09 | 42.70946 | -8.13334 | 38107 ft | 503 kts | 19° |
| 2026-05-04 23:10 | 42.77432 | -8.09767 | 38109 ft | 502 kts | 19° |
| 2026-05-04 23:10 | 42.83912 | -8.06195 | 38108 ft | 502 kts | 19° |
| 2026-05-04 23:11 | 42.90389 | -8.02617 | 38103 ft | 502 kts | 19° |
| 2026-05-04 23:11 | 42.96864 | -7.99031 | 38099 ft | 502 kts | 19° |
| 2026-05-04 23:12 | 43.03334 | -7.95440 | 38097 ft | 502 kts | 20° |
| 2026-05-04 23:12 | 43.09758 | -7.91867 | 38099 ft | 502 kts | 20° |
| 2026-05-04 23:13 | 43.16224 | -7.88262 | 38094 ft | 502 kts | 20° |
| 2026-05-04 23:13 | 43.22683 | -7.84652 | 38086 ft | 501 kts | 20° |
| 2026-05-04 23:14 | 43.29133 | -7.81039 | 38089 ft | 501 kts | 20° |
| 2026-05-04 23:14 | 43.35577 | -7.77421 | 38084 ft | 500 kts | 20° |
| 2026-05-04 23:15 | 43.42018 | -7.73797 | 38083 ft | 500 kts | 20° |
| 2026-05-04 23:15 | 43.48455 | -7.70167 | 38078 ft | 500 kts | 20° |
| 2026-05-04 23:16 | 43.54894 | -7.66527 | 38071 ft | 500 kts | 20° |
| 2026-05-04 23:16 | 43.61333 | -7.62879 | 38069 ft | 500 kts | 20° |
| 2026-05-04 23:17 | 43.67766 | -7.59226 | 38059 ft | 500 kts | 20° |
| 2026-05-04 23:17 | 43.74199 | -7.55564 | 38055 ft | 500 kts | 20° |
| 2026-05-04 23:18 | 43.80627 | -7.51896 | 38055 ft | 499 kts | 20° |
| 2026-05-04 23:18 | 43.87047 | -7.48224 | 38056 ft | 499 kts | 20° |
| 2026-05-04 23:19 | 43.93465 | -7.44545 | 38038 ft | 499 kts | 20° |
| 2026-05-04 23:19 | 43.99881 | -7.40859 | 38040 ft | 499 kts | 20° |
| 2026-05-04 23:20 | 44.06293 | -7.37166 | 38064 ft | 499 kts | 20° |
| 2026-05-04 23:20 | 44.12704 | -7.33465 | 38041 ft | 499 kts | 20° |
| 2026-05-04 23:21 | 44.19109 | -7.29758 | 38043 ft | 499 kts | 21° |
| 2026-05-04 23:21 | 44.25517 | -7.26041 | 38040 ft | 499 kts | 21° |
| 2026-05-04 23:22 | 44.31918 | -7.22320 | 38036 ft | 498 kts | 21° |
| 2026-05-04 23:22 | 44.38321 | -7.18588 | 38035 ft | 498 kts | 21° |
| 2026-05-04 23:23 | 44.44720 | -7.14850 | 38032 ft | 498 kts | 21° |
| 2026-05-04 23:23 | 44.51113 | -7.11106 | 38030 ft | 498 kts | 21° |
| 2026-05-04 23:24 | 44.57466 | -7.07377 | 38027 ft | 498 kts | 21° |
| 2026-05-04 23:24 | 44.63853 | -7.03619 | 38028 ft | 498 kts | 21° |
| 2026-05-04 23:25 | 44.70235 | -6.99855 | 38024 ft | 497 kts | 21° |
| 2026-05-04 23:25 | 44.76624 | -6.96077 | 38032 ft | 501 kts | 21° |
| 2026-05-04 23:26 | 44.83053 | -6.92055 | 38022 ft | 508 kts | 27° |
| 2026-05-04 23:26 | 44.88988 | -6.86702 | 38030 ft | 506 kts | 35° |
| 2026-05-04 23:27 | 44.94666 | -6.80872 | 38020 ft | 504 kts | 35° |
| 2026-05-04 23:27 | 45.00327 | -6.75042 | 38022 ft | 503 kts | 35° |
| 2026-05-04 23:28 | 45.06002 | -6.69251 | 38023 ft | 503 kts | 35° |
| 2026-05-04 23:28 | 45.11689 | -6.63468 | 38024 ft | 504 kts | 35° |
| 2026-05-04 23:29 | 45.17384 | -6.57669 | 38020 ft | 505 kts | 35° |
| 2026-05-04 23:29 | 45.23086 | -6.51844 | 38022 ft | 505 kts | 35° |
| 2026-05-04 23:30 | 45.28786 | -6.46004 | 38021 ft | 506 kts | 35° |
| 2026-05-04 23:30 | 45.34490 | -6.40144 | 38019 ft | 506 kts | 35° |
| 2026-05-04 23:31 | 45.40194 | -6.34269 | 38014 ft | 506 kts | 35° |
| 2026-05-04 23:31 | 45.45893 | -6.28384 | 38014 ft | 506 kts | 36° |
| 2026-05-04 23:32 | 45.51586 | -6.22492 | 38019 ft | 506 kts | 36° |
| 2026-05-04 23:32 | 45.57274 | -6.16588 | 38014 ft | 505 kts | 36° |
| 2026-05-04 23:33 | 45.62955 | -6.10677 | 38013 ft | 505 kts | 36° |
| 2026-05-04 23:33 | 45.68625 | -6.04762 | 38011 ft | 504 kts | 36° |
| 2026-05-04 23:34 | 45.74289 | -5.98839 | 38015 ft | 504 kts | 36° |
| 2026-05-04 23:34 | 45.79947 | -5.92906 | 38009 ft | 504 kts | 36° |
| 2026-05-04 23:35 | 45.85600 | -5.86964 | 38010 ft | 504 kts | 36° |
| 2026-05-04 23:35 | 45.91241 | -5.81019 | 38015 ft | 503 kts | 36° |
| 2026-05-04 23:36 | 45.96882 | -5.75058 | 38015 ft | 503 kts | 36° |
| 2026-05-04 23:36 | 46.02482 | -5.69126 | 38015 ft | 503 kts | 36° |
| 2026-05-04 23:37 | 46.08112 | -5.63146 | 38012 ft | 503 kts | 36° |
| 2026-05-04 23:37 | 46.13737 | -5.57156 | 38013 ft | 503 kts | 37° |
| 2026-05-04 23:38 | 46.19360 | -5.51153 | 38011 ft | 503 kts | 37° |
| 2026-05-04 23:38 | 46.24979 | -5.45138 | 38010 ft | 503 kts | 37° |
| 2026-05-04 23:39 | 46.30594 | -5.39112 | 38007 ft | 503 kts | 37° |
| 2026-05-04 23:39 | 46.36205 | -5.33074 | 38007 ft | 503 kts | 37° |
| 2026-05-04 23:40 | 46.41817 | -5.27019 | 38008 ft | 503 kts | 37° |
| 2026-05-04 23:40 | 46.47428 | -5.20950 | 38010 ft | 503 kts | 37° |
| 2026-05-04 23:41 | 46.53037 | -5.14867 | 38007 ft | 503 kts | 37° |
| 2026-05-04 23:41 | 46.58640 | -5.08774 | 38008 ft | 503 kts | 37° |
| 2026-05-04 23:42 | 46.64241 | -5.02667 | 38005 ft | 503 kts | 37° |
| 2026-05-04 23:42 | 46.69840 | -4.96547 | 38006 ft | 503 kts | 37° |
| 2026-05-04 23:43 | 46.75434 | -4.90414 | 38004 ft | 503 kts | 37° |
| 2026-05-04 23:43 | 46.81024 | -4.84271 | 38003 ft | 503 kts | 37° |
| 2026-05-04 23:44 | 46.86606 | -4.78121 | 38000 ft | 503 kts | 38° |
| 2026-05-04 23:44 | 46.92183 | -4.71958 | 37999 ft | 502 kts | 38° |
| 2026-05-04 23:45 | 46.97757 | -4.65783 | 37998 ft | 502 kts | 38° |
| 2026-05-04 23:45 | 47.03324 | -4.59599 | 37996 ft | 502 kts | 38° |
| 2026-05-04 23:46 | 47.08884 | -4.53406 | 37995 ft | 502 kts | 38° |
| 2026-05-04 23:46 | 47.14405 | -4.47239 | 37997 ft | 502 kts | 38° |
| 2026-05-04 23:47 | 47.19955 | -4.41024 | 37991 ft | 502 kts | 38° |
| 2026-05-04 23:47 | 47.25501 | -4.34797 | 37993 ft | 502 kts | 38° |
| 2026-05-04 23:48 | 47.31047 | -4.28553 | 37995 ft | 502 kts | 38° |
| 2026-05-04 23:48 | 47.36588 | -4.22297 | 37994 ft | 502 kts | 38° |
| 2026-05-04 23:49 | 47.42125 | -4.16029 | 37990 ft | 502 kts | 38° |
| 2026-05-04 23:49 | 47.47658 | -4.09749 | 37992 ft | 502 kts | 38° |
| 2026-05-04 23:50 | 47.53193 | -4.03449 | 37986 ft | 502 kts | 39° |
| 2026-05-04 23:50 | 47.58729 | -3.97131 | 37985 ft | 503 kts | 39° |
| 2026-05-04 23:51 | 47.64268 | -3.90791 | 37986 ft | 503 kts | 39° |
| 2026-05-04 23:51 | 47.68867 | -3.85514 | 37993 ft | 503 kts | 39° |
| 2026-05-04 23:52 | 47.74407 | -3.79142 | 37989 ft | 504 kts | 39° |
| 2026-05-04 23:52 | 47.79946 | -3.72753 | 37991 ft | 504 kts | 39° |
| 2026-05-04 23:53 | 47.85480 | -3.66352 | 37992 ft | 504 kts | 39° |
| 2026-05-04 23:53 | 47.91018 | -3.59929 | 37990 ft | 504 kts | 39° |
| 2026-05-04 23:54 | 47.96544 | -3.53501 | 37990 ft | 504 kts | 39° |
| 2026-05-04 23:54 | 48.02069 | -3.47058 | 37995 ft | 504 kts | 39° |
| 2026-05-04 23:55 | 48.07587 | -3.40603 | 37992 ft | 504 kts | 39° |
| 2026-05-04 23:56 | 48.15855 | -3.30899 | 37990 ft | 503 kts | 39° |
| 2026-05-04 23:56 | 48.21362 | -3.24413 | 37993 ft | 503 kts | 39° |
| 2026-05-04 23:57 | 48.26861 | -3.17917 | 37990 ft | 503 kts | 39° |
| 2026-05-04 23:57 | 48.32318 | -3.11453 | 37996 ft | 503 kts | 39° |
| 2026-05-04 23:58 | 48.37813 | -3.04926 | 37992 ft | 503 kts | 39° |
| 2026-05-04 23:58 | 48.43301 | -2.98389 | 37988 ft | 503 kts | 39° |
| 2026-05-04 23:59 | 48.48788 | -2.91833 | 37989 ft | 503 kts | 39° |
| 2026-05-04 23:59 | 48.54273 | -2.85263 | 37997 ft | 503 kts | 39° |
| 2026-05-05 00:00 | 48.59751 | -2.78681 | 37996 ft | 503 kts | 39° |
| 2026-05-05 00:00 | 48.65230 | -2.72078 | 37993 ft | 504 kts | 40° |
| 2026-05-05 00:01 | 48.70705 | -2.65463 | 37989 ft | 504 kts | 40° |
| 2026-05-05 00:01 | 48.76175 | -2.58835 | 37996 ft | 504 kts | 40° |
| 2026-05-05 00:02 | 48.81682 | -2.52256 | 37995 ft | 504 kts | 39° |
| 2026-05-05 00:02 | 48.87256 | -2.45776 | 37991 ft | 505 kts | 38° |
| 2026-05-05 00:03 | 48.92827 | -2.39278 | 37994 ft | 505 kts | 39° |
| 2026-05-05 00:03 | 48.98382 | -2.32745 | 37995 ft | 505 kts | 39° |
| 2026-05-05 00:04 | 49.03930 | -2.26191 | 37998 ft | 504 kts | 39° |
| 2026-05-05 00:04 | 49.09429 | -2.19678 | 37996 ft | 504 kts | 39° |
| 2026-05-05 00:05 | 49.14962 | -2.13107 | 37996 ft | 504 kts | 39° |
| 2026-05-05 00:05 | 49.20492 | -2.06531 | 37996 ft | 504 kts | 38° |
| 2026-05-05 00:06 | 49.26401 | -2.00757 | 37995 ft | 505 kts | 30° |
| 2026-05-05 00:06 | 49.32587 | -1.95639 | 37995 ft | 506 kts | 29° |
| 2026-05-05 00:07 | 49.38773 | -1.90486 | 37997 ft | 506 kts | 30° |
| 2026-05-05 00:07 | 49.44932 | -1.85248 | 37996 ft | 507 kts | 30° |
| 2026-05-05 00:08 | 49.51096 | -1.79974 | 37991 ft | 507 kts | 30° |
| 2026-05-05 00:08 | 49.57362 | -1.74985 | 37986 ft | 508 kts | 22° |
| 2026-05-05 00:09 | 49.64183 | -1.72150 | 37996 ft | 509 kts | 8° |
| 2026-05-05 00:09 | 49.71245 | -1.71417 | 38000 ft | 509 kts | 2° |
| 2026-05-05 00:10 | 49.78319 | -1.70997 | 37997 ft | 509 kts | 2° |
| 2026-05-05 00:10 | 49.85384 | -1.70451 | 37999 ft | 508 kts | 3° |
| 2026-05-05 00:11 | 49.92437 | -1.69842 | 37990 ft | 506 kts | 3° |
| 2026-05-05 00:11 | 49.95911 | -1.69545 | 37879 ft | 494 kts | 4° |
| 2026-05-05 00:11 | 49.99297 | -1.69010 | 37480 ft | 485 kts | 9° |
| 2026-05-05 00:11 | 50.02613 | -1.68026 | 36666 ft | 486 kts | 15° |
| 2026-05-05 00:12 | 50.05864 | -1.66535 | 35752 ft | 489 kts | 18° |
| 2026-05-05 00:12 | 50.09119 | -1.64892 | 34845 ft | 493 kts | 19° |
| 2026-05-05 00:12 | 50.12386 | -1.63224 | 33970 ft | 496 kts | 19° |
| 2026-05-05 00:12 | 50.15679 | -1.61565 | 32945 ft | 498 kts | 18° |
| 2026-05-05 00:13 | 50.18989 | -1.59927 | 31875 ft | 501 kts | 18° |
| 2026-05-05 00:13 | 50.22283 | -1.58314 | 30860 ft | 504 kts | 18° |
| 2026-05-05 00:13 | 50.25619 | -1.56682 | 30096 ft | 501 kts | 18° |
| 2026-05-05 00:13 | 50.28925 | -1.55065 | 29434 ft | 494 kts | 18° |
| 2026-05-05 00:14 | 50.32182 | -1.53478 | 28865 ft | 486 kts | 18° |
| 2026-05-05 00:14 | 50.35382 | -1.51919 | 28283 ft | 479 kts | 18° |
| 2026-05-05 00:14 | 50.38548 | -1.50375 | 27669 ft | 473 kts | 18° |
| 2026-05-05 00:14 | 50.41673 | -1.48846 | 27044 ft | 468 kts | 18° |
| 2026-05-05 00:15 | 50.44768 | -1.47329 | 26440 ft | 463 kts | 18° |
| 2026-05-05 00:15 | 50.47832 | -1.45824 | 26132 ft | 463 kts | 18° |
| 2026-05-05 00:15 | 50.50913 | -1.44309 | 25996 ft | 463 kts | 18° |
| 2026-05-05 00:15 | 50.53936 | -1.42790 | 25949 ft | 448 kts | 21° |
| 2026-05-05 00:16 | 50.56656 | -1.40857 | 25711 ft | 412 kts | 30° |
| 2026-05-05 00:16 | 50.59059 | -1.38722 | 25352 ft | 385 kts | 32° |
| 2026-05-05 00:16 | 50.61317 | -1.36642 | 24755 ft | 369 kts | 32° |
| 2026-05-05 00:16 | 50.63506 | -1.34651 | 24009 ft | 360 kts | 31° |
| 2026-05-05 00:17 | 50.65672 | -1.32725 | 23108 ft | 355 kts | 31° |
| 2026-05-05 00:17 | 50.67812 | -1.30854 | 22155 ft | 350 kts | 30° |
| 2026-05-05 00:17 | 50.69925 | -1.29025 | 21268 ft | 343 kts | 30° |
| 2026-05-05 00:17 | 50.72029 | -1.27208 | 20563 ft | 347 kts | 30° |
| 2026-05-05 00:18 | 50.74134 | -1.25391 | 20262 ft | 342 kts | 30° |
| 2026-05-05 00:18 | 50.76189 | -1.23614 | 19884 ft | 328 kts | 31° |
| 2026-05-05 00:18 | 50.77966 | -1.21933 | 19148 ft | 323 kts | 34° |
| 2026-05-05 00:18 | 50.79838 | -1.20002 | 18293 ft | 319 kts | 35° |
| 2026-05-05 00:19 | 50.81674 | -1.18068 | 17349 ft | 316 kts | 35° |
| 2026-05-05 00:19 | 50.83518 | -1.16129 | 16561 ft | 322 kts | 35° |
| 2026-05-05 00:19 | 50.85382 | -1.14180 | 16220 ft | 319 kts | 35° |
| 2026-05-05 00:19 | 50.87221 | -1.12267 | 15944 ft | 314 kts | 35° |
| 2026-05-05 00:20 | 50.89041 | -1.10378 | 15622 ft | 311 kts | 35° |
| 2026-05-05 00:20 | 50.90847 | -1.08504 | 15275 ft | 310 kts | 35° |
| 2026-05-05 00:20 | 50.92651 | -1.06634 | 14900 ft | 310 kts | 35° |
| 2026-05-05 00:20 | 50.94451 | -1.04766 | 14542 ft | 309 kts | 35° |
| 2026-05-05 00:21 | 50.96243 | -1.02906 | 14207 ft | 307 kts | 35° |
| 2026-05-05 00:21 | 50.98024 | -1.01055 | 13860 ft | 303 kts | 35° |
| 2026-05-05 00:21 | 50.99778 | -0.99232 | 13270 ft | 302 kts | 35° |
| 2026-05-05 00:21 | 51.01411 | -0.97184 | 13077 ft | 302 kts | 46° |
| 2026-05-05 00:22 | 51.02835 | -0.94739 | 12988 ft | 300 kts | 50° |
| 2026-05-05 00:22 | 51.04189 | -0.92228 | 12994 ft | 299 kts | 51° |
| 2026-05-05 00:22 | 51.05524 | -0.89748 | 12719 ft | 294 kts | 51° |
| 2026-05-05 00:22 | 51.06837 | -0.87337 | 12292 ft | 283 kts | 50° |
| 2026-05-05 00:23 | 51.08126 | -0.84995 | 11516 ft | 282 kts | 50° |
| 2026-05-05 00:23 | 51.09453 | -0.82641 | 11047 ft | 284 kts | 44° |
| 2026-05-05 00:23 | 51.11109 | -0.81021 | 10783 ft | 279 kts | 17° |
| 2026-05-05 00:23 | 51.13002 | -0.80816 | 10655 ft | 271 kts | 349° |
| 2026-05-05 00:24 | 51.14683 | -0.81941 | 10394 ft | 256 kts | 327° |
| 2026-05-05 00:24 | 51.16109 | -0.83601 | 9810 ft | 256 kts | 322° |
| 2026-05-05 00:24 | 51.17508 | -0.85373 | 9505 ft | 255 kts | 321° |
| 2026-05-05 00:24 | 51.18880 | -0.87128 | 9268 ft | 251 kts | 321° |
| 2026-05-05 00:25 | 51.20265 | -0.88771 | 8944 ft | 247 kts | 333° |
| 2026-05-05 00:25 | 51.21924 | -0.89444 | 8536 ft | 248 kts | 356° |
| 2026-05-05 00:25 | 51.23647 | -0.89486 | 8254 ft | 247 kts | 360° |
| 2026-05-05 00:25 | 51.25359 | -0.89429 | 7970 ft | 245 kts | 0° |
| 2026-05-05 00:26 | 51.27059 | -0.89353 | 7705 ft | 244 kts | 0° |
| 2026-05-05 00:26 | 51.28750 | -0.89270 | 7432 ft | 243 kts | 0° |
| 2026-05-05 00:26 | 51.30434 | -0.89182 | 7141 ft | 242 kts | 0° |
| 2026-05-05 00:26 | 51.32134 | -0.89090 | 6938 ft | 247 kts | 0° |
| 2026-05-05 00:27 | 51.33810 | -0.88992 | 6493 ft | 239 kts | 0° |
| 2026-05-05 00:27 | 51.35435 | -0.88888 | 6125 ft | 226 kts | 0° |
| 2026-05-05 00:27 | 51.36940 | -0.88787 | 5872 ft | 208 kts | 1° |
| 2026-05-05 00:27 | 51.38356 | -0.88691 | 5490 ft | 199 kts | 1° |
| 2026-05-05 00:28 | 51.39706 | -0.88601 | 5219 ft | 190 kts | 1° |
| 2026-05-05 00:28 | 51.41027 | -0.88513 | 5018 ft | 189 kts | 2° |
| 2026-05-05 00:28 | 51.42259 | -0.87869 | 4783 ft | 192 kts | 36° |
| 2026-05-05 00:28 | 51.43046 | -0.86155 | 4585 ft | 193 kts | 60° |
| 2026-05-05 00:29 | 51.43653 | -0.84243 | 4420 ft | 192 kts | 60° |
| 2026-05-05 00:29 | 51.44264 | -0.82336 | 4271 ft | 192 kts | 60° |
| 2026-05-05 00:29 | 51.44874 | -0.80433 | 4048 ft | 192 kts | 60° |
| 2026-05-05 00:29 | 51.45480 | -0.78547 | 3820 ft | 188 kts | 60° |
| 2026-05-05 00:30 | 51.46045 | -0.76681 | 3565 ft | 185 kts | 71° |
| 2026-05-05 00:30 | 51.46244 | -0.74631 | 3374 ft | 189 kts | 81° |
| 2026-05-05 00:30 | 51.46358 | -0.72530 | 3111 ft | 188 kts | 85° |
| 2026-05-05 00:30 | 51.46389 | -0.70481 | 3023 ft | 185 kts | 87° |
| 2026-05-05 00:31 | 51.46402 | -0.68487 | 2850 ft | 173 kts | 88° |
| 2026-05-05 00:31 | 51.46379 | -0.66593 | 2751 ft | 171 kts | 89° |
| 2026-05-05 00:31 | 51.46363 | -0.64667 | 2575 ft | 169 kts | 87° |
| 2026-05-05 00:31 | 51.46367 | -0.62874 | 2337 ft | 158 kts | 87° |
| 2026-05-05 00:32 | 51.46396 | -0.61117 | 2060 ft | 158 kts | 85° |
| 2026-05-05 00:32 | 51.46444 | -0.59347 | 1680 ft | 159 kts | 86° |
| 2026-05-05 00:32 | 51.46465 | -0.57597 | 1306 ft | 154 kts | 88° |
| 2026-05-05 00:32 | 51.46465 | -0.55895 | 1056 ft | 152 kts | 88° |
| 2026-05-05 00:33 | 51.46456 | -0.54205 | 815 ft | 152 kts | 90° |
| 2026-05-05 00:33 | 51.46448 | -0.52529 | 612 ft | 151 kts | 88° |
| 2026-05-05 00:33 | 51.46475 | -0.50838 | 414 ft | 150 kts | 88° |
| 2026-05-05 00:33 | 51.46475 | -0.49180 | 214 ft | 148 kts | 88° |
| 2026-05-05 00:34 | 51.46479 | -0.47541 | 94 ft | 142 kts | 89° |
| 2026-05-05 00:34 | 51.46486 | -0.46152 | 92 ft | 100 kts | 90° |
| 2026-05-05 00:34 | 51.46487 | -0.45324 | 94 ft | 55 kts | 90° |
| 2026-05-05 00:34 | 51.46491 | -0.44691 | 93 ft | 55 kts | 89° |
| 2026-05-05 00:35 | 51.46493 | -0.44209 | 89 ft | 16 kts | 90° |
| 2026-05-05 00:35 | 51.46508 | -0.44096 | 93 ft | 16 kts | 52° |
| 2026-05-05 00:35 | 51.46615 | -0.44058 | 91 ft | 17 kts | 348° |
| 2026-05-05 00:35 | 51.46671 | -0.44204 | 91 ft | 17 kts | 261° |
| 2026-05-05 00:36 | 51.46668 | -0.44392 | 91 ft | 17 kts | 271° |
| 2026-05-05 00:36 | 51.46665 | -0.44580 | 93 ft | 17 kts | 268° |
| 2026-05-05 00:36 | 51.46663 | -0.44769 | 95 ft | 17 kts | 271° |
| 2026-05-05 00:36 | 51.46666 | -0.44957 | 94 ft | 17 kts | 267° |
| 2026-05-05 00:37 | 51.46662 | -0.45155 | 92 ft | 19 kts | 268° |
| 2026-05-05 00:37 | 51.46663 | -0.45376 | 89 ft | 21 kts | 270° |
| 2026-05-05 00:37 | 51.46662 | -0.45617 | 86 ft | 22 kts | 269° |
| 2026-05-05 00:37 | 51.46661 | -0.45867 | 86 ft | 22 kts | 270° |
| 2026-05-05 00:38 | 51.46661 | -0.46118 | 88 ft | 22 kts | 270° |
| 2026-05-05 00:38 | 51.46660 | -0.46368 | 92 ft | 22 kts | 270° |
| 2026-05-05 00:38 | 51.46660 | -0.46619 | 94 ft | 22 kts | 270° |
| 2026-05-05 00:38 | 51.46660 | -0.46870 | 96 ft | 22 kts | 270° |
| 2026-05-05 00:39 | 51.46659 | -0.47122 | 92 ft | 23 kts | 270° |
| 2026-05-05 00:39 | 51.46668 | -0.47316 | 91 ft | 13 kts | 309° |
| 2026-05-05 00:39 | 51.46755 | -0.47351 | 91 ft | 13 kts | 1° |
| 2026-05-05 00:39 | 51.46847 | -0.47348 | 90 ft | 13 kts | 2° |
| 2026-05-05 00:40 | 51.46930 | -0.47380 | 95 ft | 9 kts | 308° |
| 2026-05-05 00:40 | 51.46920 | -0.47434 | 93 ft | 5 kts | 251° |
| 2026-05-05 00:40 | 51.46916 | -0.47494 | 97 ft | 5 kts | 270° |
| 2026-05-05 00:40 | 51.46916 | -0.47508 | 93 ft | 0 kts | 269° |